createdAt,value
2018-10-18T00:01:43.155Z,57.26
2018-10-18T00:04:11.726Z,57.43
2018-10-18T00:06:40.271Z,56.76
2018-10-18T00:09:10.729Z,57.71
2018-10-18T00:11:39.262Z,56.87
2018-10-18T00:14:08.052Z,56.99
2018-10-18T00:16:36.612Z,57.60
2018-10-18T00:19:05.400Z,57.71
2018-10-18T00:21:34.075Z,57.13
2018-10-18T00:24:02.713Z,57.99
2018-10-18T00:26:31.246Z,58.08
2018-10-18T00:29:00.000Z,58.36
2018-10-18T00:31:28.902Z,57.40
2018-10-18T00:33:57.459Z,57.51
2018-10-18T00:36:26.033Z,57.67
2018-10-18T00:38:54.588Z,58.13
2018-10-18T00:41:23.287Z,58.27
2018-10-18T00:43:51.896Z,57.98
2018-10-18T00:46:20.578Z,58.04
2018-10-18T00:48:49.130Z,57.95
2018-10-18T00:51:17.659Z,58.16
2018-10-18T00:53:46.264Z,57.93
2018-10-18T00:56:14.965Z,58.25
2018-10-18T00:58:43.512Z,58.76
2018-10-18T01:01:12.064Z,58.36
2018-10-18T01:03:40.668Z,58.47
2018-10-18T01:06:09.296Z,58.74
2018-10-18T01:08:37.815Z,58.35
2018-10-18T01:11:06.387Z,58.16
2018-10-18T01:13:34.990Z,58.02
2018-10-18T01:16:03.635Z,58.82
2018-10-18T01:18:32.309Z,58.67
2018-10-18T01:21:00.947Z,58.96
2018-10-18T01:23:29.585Z,59.32
2018-10-18T01:25:58.211Z,59.08
2018-10-18T01:28:26.902Z,59.43
2018-10-18T01:30:55.534Z,58.96
2018-10-18T01:33:24.140Z,59.41
2018-10-18T01:35:52.836Z,59.84
2018-10-18T01:38:21.612Z,58.99
2018-10-18T01:40:50.239Z,59.68
2018-10-18T01:43:19.008Z,59.69
2018-10-18T01:45:47.576Z,59.27
2018-10-18T01:48:16.333Z,59.49
2018-10-18T01:50:44.873Z,59.88
2018-10-18T01:53:13.460Z,59.94
2018-10-18T01:55:42.220Z,59.14
2018-10-18T01:58:10.900Z,59.93
2018-10-18T02:00:39.548Z,59.19
2018-10-18T02:03:08.489Z,59.39
2018-10-18T02:05:37.163Z,59.57
2018-10-18T02:08:05.752Z,59.30
2018-10-18T02:10:34.379Z,59.90
2018-10-18T02:13:02.958Z,59.45
2018-10-18T02:15:31.613Z,60.28
2018-10-18T02:18:00.248Z,59.63
2018-10-18T02:20:28.892Z,60.07
2018-10-18T02:22:57.460Z,60.07
2018-10-18T02:25:26.183Z,59.02
2018-10-18T02:27:54.748Z,59.70
2018-10-18T02:30:23.407Z,59.73
2018-10-18T02:32:52.211Z,59.49
2018-10-18T02:35:20.889Z,60.02
2018-10-18T02:37:49.468Z,60.17
2018-10-18T02:40:18.031Z,59.40
2018-10-18T02:42:46.592Z,59.30
2018-10-18T02:45:15.256Z,60.08
2018-10-18T02:47:43.917Z,60.06
2018-10-18T02:50:12.605Z,59.37
2018-10-18T02:52:41.114Z,59.88
2018-10-18T02:55:09.806Z,58.84
2018-10-18T02:57:38.493Z,58.68
2018-10-18T03:00:07.488Z,58.77
2018-10-18T03:02:36.010Z,59.21
2018-10-18T03:05:04.927Z,58.79
2018-10-18T03:07:33.441Z,58.23
2018-10-18T03:10:01.999Z,58.30
2018-10-18T03:12:30.694Z,58.30
2018-10-18T03:14:59.259Z,58.41
2018-10-18T03:17:27.804Z,58.57
2018-10-18T03:19:56.345Z,58.73
2018-10-18T03:22:24.932Z,58.12
2018-10-18T03:24:53.557Z,58.73
2018-10-18T03:27:22.195Z,58.03
2018-10-18T03:29:50.820Z,58.41
2018-10-18T03:32:19.321Z,58.30
2018-10-18T03:34:47.929Z,58.94
2018-10-18T03:37:16.562Z,58.22
2018-10-18T03:39:45.260Z,58.89
2018-10-18T03:42:13.888Z,58.06
2018-10-18T03:44:42.495Z,59.10
2018-10-18T03:47:11.013Z,58.46
2018-10-18T03:49:39.602Z,58.74
2018-10-18T03:52:08.692Z,58.58
2018-10-18T03:54:37.311Z,58.28
2018-10-18T03:57:05.886Z,58.30
2018-10-18T03:59:34.570Z,58.19
2018-10-18T04:02:03.183Z,58.75
2018-10-18T04:04:31.817Z,58.37
2018-10-18T04:07:00.352Z,58.76
2018-10-18T04:09:28.925Z,58.89
2018-10-18T04:11:57.599Z,58.47
2018-10-18T04:14:26.261Z,58.61
2018-10-18T04:16:54.888Z,58.00
2018-10-18T04:19:23.513Z,58.78
2018-10-18T04:21:52.076Z,58.03
2018-10-18T04:24:20.744Z,58.21
2018-10-18T04:26:49.312Z,58.04
2018-10-18T04:29:17.833Z,58.50
2018-10-18T04:31:46.455Z,57.89
2018-10-18T04:34:15.004Z,58.56
2018-10-18T04:36:43.640Z,57.95
2018-10-18T04:39:13.715Z,58.00
2018-10-18T04:41:42.530Z,58.50
2018-10-18T04:44:11.212Z,59.04
2018-10-18T04:46:39.872Z,58.92
2018-10-18T04:49:09.568Z,58.86
2018-10-18T04:51:38.237Z,59.45
2018-10-18T04:54:06.929Z,59.22
2018-10-18T04:56:35.511Z,59.02
2018-10-18T04:59:04.156Z,58.60
2018-10-18T05:01:32.953Z,58.68
2018-10-18T05:04:01.620Z,58.32
2018-10-18T05:06:30.256Z,58.38
2018-10-18T05:08:58.844Z,58.72
2018-10-18T05:11:28.099Z,58.48
2018-10-18T05:13:56.780Z,58.73
2018-10-18T05:16:25.508Z,58.43
2018-10-18T05:18:54.187Z,58.54
2018-10-18T05:21:22.890Z,58.83
2018-10-18T05:23:51.948Z,58.46
2018-10-18T05:26:20.522Z,58.05
2018-10-18T05:28:49.148Z,57.95
2018-10-18T05:31:17.976Z,58.14
2018-10-18T05:33:46.843Z,58.17
2018-10-18T05:36:15.485Z,58.35
2018-10-18T05:38:44.075Z,58.83
2018-10-18T05:41:12.642Z,59.16
2018-10-18T05:43:41.414Z,59.64
2018-10-18T05:46:10.237Z,59.23
2018-10-18T05:48:38.880Z,59.47
2018-10-18T05:51:07.508Z,59.87
2018-10-18T05:53:36.299Z,59.54
2018-10-18T05:56:04.876Z,60.17
2018-10-18T05:58:33.719Z,59.55
2018-10-18T06:01:02.378Z,59.33
2018-10-18T06:03:31.048Z,59.53
2018-10-18T06:05:59.788Z,59.32
2018-10-18T06:08:28.552Z,59.46
2018-10-18T06:11:08.263Z,58.64
2018-10-18T06:13:37.048Z,58.38
2018-10-18T06:16:05.757Z,58.74
2018-10-18T06:18:34.562Z,58.27
2018-10-18T06:21:03.276Z,58.54
2018-10-18T06:23:32.091Z,58.46
2018-10-18T06:26:00.837Z,58.40
2018-10-18T06:28:29.435Z,57.84
2018-10-18T06:30:58.147Z,57.51
2018-10-18T06:33:26.971Z,57.53
2018-10-18T06:35:55.665Z,58.00
2018-10-18T06:38:24.335Z,57.82
2018-10-18T06:40:53.137Z,57.29
2018-10-18T06:43:21.811Z,57.52
2018-10-18T06:45:50.585Z,57.24
2018-10-18T06:48:19.385Z,57.96
2018-10-18T06:50:48.033Z,57.10
2018-10-18T06:53:16.762Z,57.02
2018-10-18T06:55:45.469Z,57.32
2018-10-18T06:58:14.180Z,56.80
2018-10-18T07:00:42.798Z,56.97
2018-10-18T07:03:11.439Z,56.41
2018-10-18T07:05:40.275Z,55.97
2018-10-18T07:08:08.984Z,55.51
2018-10-18T07:10:37.749Z,56.07
2018-10-18T07:13:06.499Z,56.53
2018-10-18T07:15:35.111Z,55.65
2018-10-18T07:18:03.900Z,55.16
2018-10-18T07:20:32.679Z,55.76
2018-10-18T07:23:02.063Z,55.35
2018-10-18T07:25:30.672Z,55.60
2018-10-18T07:27:59.368Z,56.01
2018-10-18T07:30:27.947Z,54.71
2018-10-18T07:32:56.711Z,55.74
2018-10-18T07:35:25.356Z,55.17
2018-10-18T07:37:54.195Z,54.56
2018-10-18T07:40:23.012Z,54.24
2018-10-18T07:42:51.888Z,54.40
2018-10-18T07:45:20.545Z,54.62
2018-10-18T07:47:49.754Z,54.35
2018-10-18T07:50:18.822Z,54.30
2018-10-18T07:52:47.391Z,53.87
2018-10-18T07:55:16.499Z,54.23
2018-10-18T07:57:45.059Z,53.55
2018-10-18T08:00:15.081Z,53.92
2018-10-18T08:02:44.404Z,54.16
2018-10-18T08:05:13.527Z,52.94
2018-10-18T08:07:42.359Z,54.02
2018-10-18T08:10:13.887Z,53.82
2018-10-18T08:12:42.605Z,53.83
2018-10-18T08:15:12.651Z,53.42
2018-10-18T08:17:41.657Z,53.68
2018-10-18T08:20:10.887Z,52.67
2018-10-18T08:22:39.991Z,53.37
2018-10-18T08:25:08.597Z,52.92
2018-10-18T08:27:37.588Z,52.87
2018-10-18T08:30:11.090Z,52.17
2018-10-18T08:32:39.673Z,52.26
2018-10-18T08:35:09.711Z,52.57
2018-10-18T08:37:38.440Z,52.36
2018-10-18T08:40:07.952Z,52.06
2018-10-18T08:42:36.523Z,52.59
2018-10-18T08:45:05.761Z,52.01
2018-10-18T08:47:34.358Z,52.25
2018-10-18T08:50:03.093Z,52.31
2018-10-18T08:52:31.679Z,52.75
2018-10-18T08:55:00.274Z,52.15
2018-10-18T08:57:28.747Z,52.08
2018-10-18T08:59:57.285Z,52.02
2018-10-18T09:02:25.803Z,52.79
2018-10-18T09:04:54.422Z,51.89
2018-10-18T09:07:22.993Z,51.81
2018-10-18T09:09:51.480Z,51.74
2018-10-18T09:12:20.087Z,52.10
2018-10-18T09:14:48.576Z,51.40
2018-10-18T09:17:17.077Z,51.63
2018-10-18T09:19:45.646Z,51.65
2018-10-18T09:22:14.308Z,50.92
2018-10-18T09:24:42.879Z,51.09
2018-10-18T09:27:11.379Z,50.87
2018-10-18T09:29:39.907Z,50.08
2018-10-18T09:32:08.391Z,50.11
2018-10-18T09:34:36.978Z,50.05
2018-10-18T09:37:06.153Z,49.53
2018-10-18T09:39:34.624Z,49.55
2018-10-18T09:42:03.146Z,49.57
2018-10-18T09:44:32.299Z,49.28
2018-10-18T09:47:01.070Z,48.74
2018-10-18T09:49:29.696Z,47.73
2018-10-18T09:51:58.262Z,46.61
2018-10-18T09:54:26.847Z,44.82
2018-10-18T09:56:55.435Z,44.88
2018-10-18T09:59:24.024Z,43.74
2018-10-18T10:01:57.821Z,41.36
2018-10-18T10:04:26.482Z,40.52
2018-10-18T10:06:55.207Z,40.31
2018-10-18T10:09:23.735Z,40.04
2018-10-18T10:11:52.497Z,39.62
2018-10-18T10:14:21.004Z,39.02
2018-10-18T10:16:49.590Z,39.65
2018-10-18T10:19:18.386Z,39.29
2018-10-18T10:21:46.899Z,40.10
2018-10-18T10:24:15.522Z,41.31
2018-10-18T10:26:44.563Z,41.45
2018-10-18T10:29:13.248Z,41.30
2018-10-18T10:31:42.003Z,41.14
2018-10-18T10:34:10.765Z,41.23
2018-10-18T10:36:39.407Z,40.33
2018-10-18T10:39:09.432Z,38.75
2018-10-18T10:41:37.887Z,36.22
2018-10-18T10:44:08.328Z,33.81
2018-10-18T10:46:38.084Z,32.80
2018-10-18T10:49:07.377Z,29.53
2018-10-18T10:51:36.041Z,28.87
2018-10-18T10:54:05.553Z,26.98
2018-10-18T10:56:34.144Z,25.77
2018-10-18T10:59:12.376Z,25.45
2018-10-18T11:01:41.172Z,26.37
2018-10-18T11:04:09.902Z,28.00
2018-10-18T11:06:38.419Z,28.91
2018-10-18T11:09:09.076Z,29.65
2018-10-18T11:11:37.680Z,30.23
2018-10-18T11:14:06.396Z,30.44
2018-10-18T11:16:35.013Z,32.00
2018-10-18T11:19:03.953Z,32.17
2018-10-18T11:21:32.957Z,33.46
2018-10-18T11:24:01.694Z,32.03
2018-10-18T11:26:30.227Z,29.23
2018-10-18T11:28:58.912Z,26.63
2018-10-18T11:31:27.444Z,24.51
2018-10-18T11:33:56.547Z,22.88
2018-10-18T11:36:25.047Z,21.99
2018-10-18T11:38:53.691Z,22.19
2018-10-18T11:41:22.534Z,22.04
2018-10-18T11:43:51.468Z,21.08
2018-10-18T11:46:20.460Z,22.08
2018-10-18T11:48:49.148Z,23.16
2018-10-18T11:51:17.871Z,24.36
2018-10-18T11:53:46.491Z,25.69
2018-10-18T11:56:15.200Z,25.40
2018-10-18T11:58:43.794Z,24.16
2018-10-18T12:01:13.311Z,22.48
2018-10-18T12:03:42.038Z,22.75
2018-10-18T12:06:10.763Z,22.91
2018-10-18T12:08:39.465Z,21.12
2018-10-18T12:11:08.167Z,21.71
2018-10-18T12:13:36.862Z,20.61
2018-10-18T12:16:05.821Z,22.42
2018-10-18T12:18:34.403Z,22.49
2018-10-18T12:21:03.198Z,23.61
2018-10-18T12:23:31.817Z,25.21
2018-10-18T12:26:00.557Z,26.42
2018-10-18T12:28:29.191Z,27.31
2018-10-18T12:30:57.833Z,28.01
2018-10-18T12:33:26.568Z,28.53
2018-10-18T12:35:55.204Z,29.32
2018-10-18T12:38:23.801Z,30.53
2018-10-18T12:40:52.659Z,31.07
2018-10-18T12:43:21.323Z,30.52
2018-10-18T12:45:50.313Z,31.75
2018-10-18T12:48:19.074Z,31.40
2018-10-18T12:50:47.522Z,32.23
2018-10-18T12:53:16.579Z,32.81
2018-10-18T12:55:45.120Z,32.59
2018-10-18T12:58:13.698Z,32.75
2018-10-18T13:00:42.289Z,32.80
2018-10-18T13:03:10.813Z,33.37
2018-10-18T13:05:39.473Z,34.17
2018-10-18T13:08:08.081Z,34.54
2018-10-18T13:10:37.141Z,34.69
2018-10-18T13:13:06.181Z,34.80
2018-10-18T13:15:35.529Z,34.24
2018-10-18T13:18:04.191Z,34.94
2018-10-18T13:20:32.779Z,35.18
2018-10-18T13:23:02.018Z,35.48
2018-10-18T13:25:30.993Z,36.07
2018-10-18T13:27:59.780Z,35.50
2018-10-18T13:30:28.380Z,36.19
2018-10-18T13:32:57.160Z,35.44
2018-10-18T13:35:25.814Z,36.01
2018-10-18T13:37:54.455Z,35.19
2018-10-18T13:40:24.172Z,35.58
2018-10-18T13:42:53.659Z,36.47
2018-10-18T13:45:22.275Z,35.82
2018-10-18T13:47:51.232Z,35.99
2018-10-18T13:50:19.977Z,36.43
2018-10-18T13:52:49.062Z,35.93
2018-10-18T13:55:17.871Z,36.63
2018-10-18T13:57:48.795Z,36.53
2018-10-18T14:00:23.830Z,37.83
2018-10-18T14:02:53.569Z,37.93
2018-10-18T14:05:22.563Z,38.10
2018-10-18T14:07:52.248Z,39.19
2018-10-18T14:10:21.275Z,39.31
2018-10-18T14:12:50.499Z,39.72
2018-10-18T14:15:19.327Z,39.37
2018-10-18T14:17:48.016Z,39.82
2018-10-18T14:20:16.879Z,40.45
2018-10-18T14:22:45.397Z,41.00
2018-10-18T14:25:13.948Z,40.91
2018-10-18T14:27:42.705Z,41.88
2018-10-18T14:30:12.887Z,42.45
2018-10-18T14:32:41.427Z,41.84
2018-10-18T14:35:11.593Z,42.24
2018-10-18T14:37:40.232Z,42.80
2018-10-18T14:40:11.254Z,42.08
2018-10-18T14:42:40.053Z,42.64
2018-10-18T14:45:10.031Z,42.24
2018-10-18T14:47:38.778Z,41.95
2018-10-18T14:50:09.158Z,42.41
2018-10-18T14:52:37.764Z,42.82
2018-10-18T14:55:06.696Z,42.32
2018-10-18T14:57:35.671Z,42.76
2018-10-18T15:00:04.684Z,42.57
2018-10-18T15:02:33.377Z,43.01
2018-10-18T15:05:02.281Z,43.89
2018-10-18T15:07:31.120Z,44.05
2018-10-18T15:09:59.761Z,43.51
2018-10-18T15:12:28.413Z,43.46
2018-10-18T15:14:57.128Z,44.22
2018-10-18T15:17:25.772Z,43.70
2018-10-18T15:19:54.846Z,43.51
2018-10-18T15:22:23.748Z,44.32
2018-10-18T15:24:52.791Z,44.45
2018-10-18T15:27:22.480Z,44.51
2018-10-18T15:29:51.539Z,43.95
2018-10-18T15:32:20.441Z,43.70
2018-10-18T15:34:49.559Z,44.38
2018-10-18T15:37:18.526Z,44.37
2018-10-18T15:39:47.335Z,44.23
2018-10-18T15:42:16.288Z,44.30
2018-10-18T15:44:45.154Z,44.00
2018-10-18T15:47:14.116Z,44.80
2018-10-18T15:49:43.027Z,44.77
2018-10-18T15:52:11.953Z,44.71
2018-10-18T15:54:41.342Z,44.43
2018-10-18T15:57:32.855Z,44.80
2018-10-18T16:00:01.821Z,44.89
2018-10-18T16:02:30.599Z,45.41
2018-10-18T16:04:59.347Z,45.67
2018-10-18T16:07:28.154Z,45.07
2018-10-18T16:09:56.792Z,46.04
2018-10-18T16:12:26.036Z,45.07
2018-10-18T16:14:55.255Z,46.04
2018-10-18T16:17:24.418Z,45.99
2018-10-18T16:19:53.260Z,45.67
2018-10-18T16:22:22.083Z,46.44
2018-10-18T16:24:50.829Z,46.15
2018-10-18T16:27:19.537Z,46.97
2018-10-18T16:29:48.250Z,47.83
2018-10-18T16:32:17.001Z,48.52
2018-10-18T16:34:45.738Z,48.98
2018-10-18T16:37:14.540Z,49.97
2018-10-18T16:39:43.262Z,49.61
2018-10-18T16:42:12.896Z,50.33
2018-10-18T16:44:54.784Z,50.87
2018-10-18T16:47:23.739Z,50.85
2018-10-18T16:49:52.416Z,51.03
2018-10-18T16:52:21.133Z,51.07
2018-10-18T16:54:50.413Z,51.03
2018-10-18T16:57:19.272Z,51.55
2018-10-18T16:59:47.922Z,51.64
2018-10-18T17:02:16.724Z,52.34
2018-10-18T17:04:45.498Z,51.35
2018-10-18T17:07:14.428Z,52.09
2018-10-18T17:09:43.183Z,52.16
2018-10-18T17:12:11.969Z,52.14
2018-10-18T17:14:40.716Z,52.16
2018-10-18T17:17:09.407Z,52.59
2018-10-18T17:19:38.015Z,52.33
2018-10-18T17:22:06.656Z,51.98
2018-10-18T17:24:35.249Z,52.54
2018-10-18T17:27:03.987Z,52.76
2018-10-18T17:29:32.694Z,52.76
2018-10-18T17:32:01.291Z,52.41
2018-10-18T17:34:29.895Z,52.85
2018-10-18T17:36:58.600Z,52.86
2018-10-18T17:39:27.196Z,53.21
2018-10-18T17:41:55.789Z,53.34
2018-10-18T17:44:24.366Z,53.23
2018-10-18T17:46:52.905Z,53.88
2018-10-18T17:49:21.442Z,53.65
2018-10-18T17:51:50.023Z,53.08
2018-10-18T17:54:18.614Z,52.57
2018-10-18T17:56:47.191Z,53.06
2018-10-18T17:59:16.009Z,53.05
2018-10-18T18:01:45.067Z,53.17
2018-10-18T18:04:13.694Z,53.17
2018-10-18T18:06:42.963Z,53.91
2018-10-18T18:09:11.484Z,53.34
2018-10-18T18:11:40.214Z,53.46
2018-10-18T18:14:08.748Z,53.93
2018-10-18T18:16:37.273Z,54.48
2018-10-18T18:19:05.949Z,54.83
2018-10-18T18:21:34.466Z,54.57
2018-10-18T18:24:02.957Z,54.52
2018-10-18T18:26:44.790Z,55.64
2018-10-18T18:29:00.295Z,54.88
2018-10-18T18:31:28.858Z,54.96
2018-10-18T18:33:57.420Z,55.07
2018-10-18T18:36:25.844Z,56.01
2018-10-18T18:38:54.395Z,55.74
2018-10-18T18:41:22.964Z,55.62
2018-10-18T18:43:51.576Z,55.39
2018-10-18T18:46:20.075Z,55.43
2018-10-18T18:48:48.576Z,55.65
2018-10-18T18:51:17.171Z,55.40
2018-10-18T18:53:45.605Z,55.46
2018-10-18T18:56:14.098Z,55.65
2018-10-18T18:58:42.602Z,54.67
2018-10-18T19:01:11.254Z,55.35
2018-10-18T19:03:40.062Z,55.46
2018-10-18T19:06:09.715Z,55.22
2018-10-18T19:08:38.289Z,54.82
2018-10-18T19:11:06.943Z,54.94
2018-10-18T19:13:35.727Z,55.03
2018-10-18T19:16:04.229Z,54.45
2018-10-18T19:18:32.813Z,54.70
2018-10-18T19:21:01.259Z,54.73
2018-10-18T19:23:29.843Z,55.01
2018-10-18T19:25:58.414Z,55.64
2018-10-18T19:28:26.931Z,54.87
2018-10-18T19:30:55.574Z,55.85
2018-10-18T19:33:24.112Z,55.57
2018-10-18T19:35:52.741Z,55.70
2018-10-18T19:38:21.279Z,55.44
2018-10-18T19:40:49.853Z,55.08
2018-10-18T19:43:18.432Z,54.74
2018-10-18T19:45:47.171Z,54.79
2018-10-18T19:48:15.752Z,55.45
2018-10-18T19:50:44.400Z,55.09
2018-10-18T19:53:12.939Z,55.15
2018-10-18T19:55:41.464Z,55.50
2018-10-18T19:58:10.161Z,55.66
2018-10-18T20:00:38.623Z,55.46
2018-10-18T20:03:07.171Z,55.80
2018-10-18T20:05:35.821Z,55.68
2018-10-18T20:08:04.583Z,56.02
2018-10-18T20:10:33.317Z,55.49
2018-10-18T20:13:02.194Z,56.00
2018-10-18T20:15:30.677Z,56.02
2018-10-18T20:17:59.285Z,56.06
2018-10-18T20:20:27.916Z,55.96
2018-10-18T20:22:56.495Z,56.51
2018-10-18T20:25:25.099Z,56.06
2018-10-18T20:27:53.596Z,55.89
2018-10-18T20:30:22.411Z,55.71
2018-10-18T20:32:51.007Z,56.50
2018-10-18T20:35:19.593Z,56.29
2018-10-18T20:37:48.111Z,56.38
2018-10-18T20:40:16.640Z,56.30
2018-10-18T20:42:45.160Z,56.58
2018-10-18T20:45:18.904Z,56.48
2018-10-18T20:47:47.548Z,56.37
2018-10-18T20:50:16.064Z,56.66
2018-10-18T20:52:44.663Z,56.54
2018-10-18T20:55:13.220Z,56.80
2018-10-18T20:57:41.757Z,56.29
2018-10-18T21:00:10.508Z,56.18
2018-10-18T21:02:39.075Z,56.18
2018-10-18T21:05:07.637Z,56.63
2018-10-18T21:07:36.240Z,55.92
2018-10-18T21:10:04.824Z,55.93
2018-10-18T21:12:33.393Z,56.19
2018-10-18T21:15:02.182Z,56.00
2018-10-18T21:17:30.640Z,56.31
2018-10-18T21:19:59.219Z,55.65
2018-10-18T21:22:27.806Z,55.76
2018-10-18T21:24:56.395Z,55.52
2018-10-18T21:27:24.896Z,56.21
2018-10-18T21:29:53.463Z,55.84
2018-10-18T21:32:21.999Z,56.00
2018-10-18T21:34:50.688Z,55.96
2018-10-18T21:37:19.229Z,56.95
2018-10-18T21:39:47.682Z,56.98
2018-10-18T21:42:16.293Z,56.79
2018-10-18T21:44:45.537Z,56.80
2018-10-18T21:47:14.228Z,57.07
2018-10-18T21:49:42.699Z,57.58
2018-10-18T21:52:11.219Z,57.88
2018-10-18T21:54:39.695Z,57.69
2018-10-18T21:57:08.320Z,57.32
2018-10-18T21:59:36.886Z,58.18
2018-10-18T22:02:05.673Z,58.08
2018-10-18T22:04:34.266Z,57.37
2018-10-18T22:07:02.826Z,57.80
2018-10-18T22:09:31.359Z,57.41
2018-10-18T22:11:59.872Z,57.64
2018-10-18T22:14:28.492Z,58.30
2018-10-18T22:16:57.160Z,58.25
2018-10-18T22:19:25.571Z,58.29
2018-10-18T22:21:54.150Z,57.98
2018-10-18T22:24:22.668Z,58.01
2018-10-18T22:26:51.329Z,58.21
2018-10-18T22:29:19.865Z,57.12
2018-10-18T22:31:48.481Z,56.98
2018-10-18T22:34:17.037Z,57.33
2018-10-18T22:36:45.619Z,56.86
2018-10-18T22:39:14.316Z,57.09
2018-10-18T22:41:42.980Z,57.23
2018-10-18T22:44:12.669Z,57.36
2018-10-18T22:46:41.322Z,56.65
2018-10-18T22:49:09.976Z,57.56
2018-10-18T22:51:38.698Z,56.75
2018-10-18T22:54:07.393Z,57.53
2018-10-18T22:56:36.396Z,57.08
2018-10-18T22:59:05.123Z,57.20
2018-10-18T23:01:33.813Z,57.09
2018-10-18T23:04:02.413Z,57.26
2018-10-18T23:06:31.000Z,57.39
2018-10-18T23:08:59.843Z,56.83
2018-10-18T23:11:28.501Z,56.48
2018-10-18T23:13:57.165Z,56.43
2018-10-18T23:16:25.821Z,56.89
2018-10-18T23:18:54.434Z,57.40
2018-10-18T23:21:23.062Z,56.85
2018-10-18T23:23:51.625Z,56.59
2018-10-18T23:26:20.268Z,57.07
2018-10-18T23:28:48.834Z,57.18
2018-10-18T23:31:17.569Z,57.33
2018-10-18T23:33:46.201Z,56.78
2018-10-18T23:36:14.802Z,57.19
2018-10-18T23:38:43.495Z,56.73
2018-10-18T23:41:12.121Z,56.94
2018-10-18T23:43:40.664Z,56.96
2018-10-18T23:46:09.344Z,56.29
2018-10-18T23:48:37.942Z,56.07
2018-10-18T23:51:06.488Z,56.16
2018-10-18T23:53:35.041Z,56.12
2018-10-18T23:56:03.753Z,56.67
2018-10-18T23:58:32.352Z,56.47
